Time;durP1;ratioP1;P1;durP2;ratioP2;P2;SDS_P1;SDS_P2;PMS_P1;PMS_P2;Temp;Humidity;BMP_temperature;BMP_pressure;BME280_temperature;BME280_humidity;BME280_pressure;Samples;Min_cycle;Max_cycle;Signal;HPM_P1;HPM_P2
2022/04/19 00:00:42;;;;;;;6.35;5.07;;;11.00;57.70;;;;;;2094718;28;20086;-68
2022/04/19 00:01:43;;;;;;;7.43;6.00;;;11.00;57.80;;;;;;2091988;28;20486;-68
2022/04/19 00:02:44;;;;;;;6.13;4.95;;;11.00;58.40;;;;;;2096137;28;20028;-68
2022/04/19 00:03:44;;;;;;;6.43;5.70;;;11.00;58.00;;;;;;2097076;28;20100;-68
2022/04/19 00:04:45;;;;;;;5.68;4.55;;;10.90;58.10;;;;;;2094096;28;20557;-68
2022/04/19 00:05:46;;;;;;;7.38;6.13;;;10.90;58.00;;;;;;2097153;28;20028;-68
2022/04/19 00:06:47;;;;;;;7.88;6.53;;;10.90;58.40;;;;;;2094720;28;20043;-68
2022/04/19 00:07:47;;;;;;;6.55;5.57;;;10.80;58.60;;;;;;2092984;28;20029;-68
2022/04/19 00:08:50;;;;;;;7.13;5.90;;;10.80;58.70;;;;;;2097491;28;20048;-68
2022/04/19 00:09:50;;;;;;;6.10;5.03;;;10.80;58.80;;;;;;2093609;28;20026;-68
2022/04/19 00:10:51;;;;;;;6.30;5.68;;;10.80;58.70;;;;;;2095747;28;20033;-68
2022/04/19 00:11:51;;;;;;;6.25;5.43;;;10.70;58.80;;;;;;2095270;28;20028;-68
2022/04/19 00:12:52;;;;;;;6.40;5.80;;;10.70;59.00;;;;;;2095885;28;20494;-68
2022/04/19 00:13:53;;;;;;;6.20;5.57;;;10.70;59.20;;;;;;2112441;28;20112;-68
2022/04/19 00:14:53;;;;;;;6.78;6.05;;;10.60;59.20;;;;;;2110149;28;20114;-68
2022/04/19 00:15:55;;;;;;;5.88;5.22;;;10.60;59.30;;;;;;2092758;28;20071;-68
2022/04/19 00:16:55;;;;;;;7.78;5.70;;;10.50;59.20;;;;;;2097768;28;20078;-68
2022/04/19 00:17:57;;;;;;;6.10;5.22;;;10.50;59.80;;;;;;2093726;28;20123;-68
2022/04/19 00:18:57;;;;;;;7.28;6.20;;;10.50;59.80;;;;;;2095493;28;20029;-68
2022/04/19 00:19:58;;;;;;;5.78;5.18;;;10.50;60.00;;;;;;2096172;28;20028;-68
2022/04/19 00:20:59;;;;;;;9.13;7.00;;;10.50;59.90;;;;;;2094289;28;20041;-68
2022/04/19 00:22:00;;;;;;;7.13;5.97;;;10.40;60.10;;;;;;2096948;28;20048;-67
2022/04/19 00:23:03;;;;;;;7.07;5.78;;;10.40;60.40;;;;;;2094764;28;20020;-67
2022/04/19 00:24:03;;;;;;;6.65;5.93;;;10.40;60.00;;;;;;2096585;28;20055;-67
2022/04/19 00:25:06;;;;;;;6.05;5.38;;;10.30;60.60;;;;;;2097791;28;20052;-67
2022/04/19 00:26:06;;;;;;;6.85;5.97;;;10.30;60.30;;;;;;2092930;28;20028;-67
2022/04/19 00:27:07;;;;;;;6.28;5.65;;;10.30;60.80;;;;;;2097799;28;20713;-68
2022/04/19 00:28:08;;;;;;;7.35;6.43;;;10.20;61.00;;;;;;2093373;28;20435;-68
2022/04/19 00:29:09;;;;;;;6.72;6.00;;;10.20;61.30;;;;;;2093896;28;20056;-68
2022/04/19 00:30:10;;;;;;;5.70;5.20;;;10.20;61.30;;;;;;2095601;28;20029;-68
2022/04/19 00:31:11;;;;;;;6.13;5.35;;;10.10;61.10;;;;;;2095843;28;20096;-67
2022/04/19 00:32:12;;;;;;;9.00;6.15;;;10.10;60.80;;;;;;2094019;28;20082;-67
2022/04/19 00:33:12;;;;;;;6.05;5.40;;;10.10;61.20;;;;;;2096877;28;20399;-67
2022/04/19 00:34:13;;;;;;;7.10;6.40;;;10.10;61.10;;;;;;2093566;28;20551;-68
2022/04/19 00:35:14;;;;;;;6.70;6.00;;;10.00;61.40;;;;;;2096366;28;20024;-68
2022/04/19 00:36:18;;;;;;;6.90;5.75;;;10.00;61.80;;;;;;2099611;28;20036;-68
2022/04/19 00:37:19;;;;;;;7.70;6.03;;;10.00;61.60;;;;;;2093092;28;20025;-68
2022/04/19 00:38:20;;;;;;;6.47;5.78;;;9.90;61.70;;;;;;2098312;28;20028;-68
2022/04/19 00:39:20;;;;;;;6.65;5.95;;;9.90;61.90;;;;;;2095277;28;20694;-67
2022/04/19 00:40:21;;;;;;;6.18;5.50;;;9.90;61.70;;;;;;2090658;28;20774;-67
2022/04/19 00:41:21;;;;;;;6.55;5.80;;;9.90;62.10;;;;;;2096384;28;20037;-68
2022/04/19 00:42:22;;;;;;;7.10;5.38;;;9.80;62.20;;;;;;2100324;28;20042;-68
2022/04/19 00:43:25;;;;;;;6.00;5.50;;;9.80;62.20;;;;;;2097469;28;20033;-67
2022/04/19 00:44:26;;;;;;;6.75;5.93;;;9.80;62.20;;;;;;2097054;28;20107;-67
2022/04/19 00:45:26;;;;;;;6.35;5.60;;;9.80;62.80;;;;;;2095782;28;20025;-67
2022/04/19 00:46:27;;;;;;;6.00;5.40;;;9.70;62.80;;;;;;2097543;28;20028;-68
2022/04/19 00:47:27;;;;;;;6.97;5.53;;;9.70;62.60;;;;;;2093467;28;20036;-67
2022/04/19 00:48:28;;;;;;;8.55;5.95;;;9.70;62.60;;;;;;2093618;28;20443;-67
2022/04/19 00:49:28;;;;;;;7.68;5.80;;;9.70;63.10;;;;;;2097296;28;20479;-67
2022/04/19 00:50:30;;;;;;;6.10;5.50;;;9.60;63.20;;;;;;2097629;28;20487;-67
2022/04/19 00:51:31;;;;;;;8.35;5.80;;;9.60;63.20;;;;;;2093903;28;20025;-67
2022/04/19 00:52:34;;;;;;;7.55;5.72;;;9.60;63.30;;;;;;2096897;28;20384;-67
2022/04/19 00:53:35;;;;;;;5.68;5.18;;;9.60;63.60;;;;;;2096207;28;20044;-67
2022/04/19 00:54:36;;;;;;;7.75;6.80;;;9.50;63.40;;;;;;2096184;28;20099;-67
2022/04/19 00:55:38;;;;;;;7.63;5.75;;;9.50;64.10;;;;;;2094952;28;20029;-67
2022/04/19 00:56:40;;;;;;;7.30;6.13;;;9.50;64.10;;;;;;2097376;28;20032;-67
2022/04/19 00:57:42;;;;;;;10.07;5.85;;;9.40;64.10;;;;;;2098071;28;20032;-67
2022/04/19 00:58:43;;;;;;;6.43;5.85;;;9.40;64.20;;;;;;2093662;28;20684;-67
2022/04/19 00:59:45;;;;;;;7.60;5.55;;;9.40;64.90;;;;;;2096133;28;20388;-68
2022/04/19 01:00:46;;;;;;;8.10;5.95;;;9.40;64.30;;;;;;2091639;28;20074;-67
2022/04/19 01:01:50;;;;;;;6.20;5.35;;;9.40;64.90;;;;;;2093035;28;20095;-67
2022/04/19 01:02:51;;;;;;;8.57;5.43;;;9.30;64.60;;;;;;2088399;28;20028;-67
2022/04/19 01:03:51;;;;;;;6.03;5.32;;;9.30;64.50;;;;;;2088448;28;20025;-68
2022/04/19 01:04:56;;;;;;;6.22;5.68;;;9.30;64.80;;;;;;2093635;28;20021;-68
2022/04/19 01:05:58;;;;;;;6.25;5.68;;;9.30;64.90;;;;;;2094739;28;20191;-67
2022/04/19 01:07:00;;;;;;;7.25;5.82;;;9.30;65.00;;;;;;2095923;28;20033;-67
2022/04/19 01:08:00;;;;;;;8.57;6.15;;;9.20;65.10;;;;;;2092630;28;20021;-67
2022/04/19 01:09:01;;;;;;;6.38;5.20;;;9.20;65.70;;;;;;2095900;28;20109;-67
2022/04/19 01:10:03;;;;;;;6.45;5.82;;;9.20;65.80;;;;;;2093858;28;20032;-67
2022/04/19 01:13:42;;;;;;;6.07;5.45;;;9.10;66.10;;;;;;2100961;28;20411;-67
2022/04/19 01:14:43;;;;;;;7.25;5.55;;;9.00;66.40;;;;;;2093264;28;20091;-67
2022/04/19 01:15:50;;;;;;;6.25;5.68;;;9.00;66.10;;;;;;2094363;28;20028;-67
2022/04/19 01:16:51;;;;;;;7.22;5.88;;;9.00;66.70;;;;;;2095968;28;20063;-67
2022/04/19 01:17:52;;;;;;;6.22;5.53;;;8.90;66.60;;;;;;2089776;28;20576;-67
2022/04/19 01:18:53;;;;;;;5.90;5.25;;;8.90;67.40;;;;;;2096931;28;20369;-67
2022/04/19 01:19:55;;;;;;;6.10;5.43;;;9.00;66.60;;;;;;2096768;28;20043;-67
2022/04/19 01:20:55;;;;;;;6.40;5.13;;;8.90;66.50;;;;;;2096784;28;20032;-67
2022/04/19 01:21:57;;;;;;;6.85;5.78;;;8.90;66.50;;;;;;2095739;28;20017;-67
2022/04/19 01:22:57;;;;;;;7.55;5.85;;;8.90;66.90;;;;;;2096171;28;20137;-67
2022/04/19 01:23:58;;;;;;;7.55;5.95;;;8.80;67.30;;;;;;2093416;28;20017;-67
2022/04/19 01:24:58;;;;;;;6.75;5.85;;;8.80;68.00;;;;;;2096609;28;20033;-67
2022/04/19 01:25:59;;;;;;;6.57;5.68;;;8.80;68.10;;;;;;2095801;28;20107;-67
2022/04/19 01:27:00;;;;;;;7.47;6.25;;;8.80;67.80;;;;;;2096160;28;20756;-67
2022/04/19 01:28:00;;;;;;;6.63;5.85;;;8.80;68.60;;;;;;2094274;28;20033;-67
2022/04/19 01:29:01;;;;;;;8.65;5.88;;;8.70;68.20;;;;;;2094972;28;20028;-69
2022/04/19 01:30:05;;;;;;;6.32;5.60;;;8.70;68.30;;;;;;2095336;28;20043;-68
2022/04/19 01:31:06;;;;;;;7.07;5.45;;;8.70;68.50;;;;;;2097230;28;20036;-68
2022/04/19 01:32:07;;;;;;;6.03;5.43;;;8.70;69.00;;;;;;2096019;28;20032;-67
2022/04/19 01:33:07;;;;;;;5.78;5.18;;;8.70;68.90;;;;;;2095822;28;20060;-68
2022/04/19 01:34:09;;;;;;;7.53;5.75;;;8.70;68.90;;;;;;2093123;28;20060;-68
2022/04/19 01:35:13;;;;;;;7.53;5.97;;;8.60;69.10;;;;;;2094285;28;20032;-68
2022/04/19 01:36:14;;;;;;;10.82;6.38;;;8.60;69.40;;;;;;2095823;28;20024;-68
2022/04/19 01:37:15;;;;;;;6.30;5.22;;;8.60;69.50;;;;;;2093008;28;20056;-68
2022/04/19 01:38:15;;;;;;;7.68;5.78;;;8.60;69.30;;;;;;2095345;28;20025;-68
2022/04/19 01:39:16;;;;;;;7.85;6.32;;;8.50;69.70;;;;;;2094828;28;20025;-68
2022/04/19 01:40:18;;;;;;;6.68;5.70;;;8.50;69.20;;;;;;2094748;28;20083;-68
2022/04/19 01:41:18;;;;;;;7.47;5.70;;;8.50;69.30;;;;;;2097018;28;20039;-68
2022/04/19 01:42:19;;;;;;;6.10;5.50;;;8.50;69.60;;;;;;2095483;28;20025;-68
2022/04/19 01:43:19;;;;;;;7.43;5.53;;;8.50;69.70;;;;;;2096506;28;20031;-68
2022/04/19 01:44:20;;;;;;;6.85;5.22;;;8.40;70.20;;;;;;2108502;28;20028;-68
2022/04/19 01:45:26;;;;;;;7.80;6.70;;;8.40;70.30;;;;;;2110871;28;20523;-68
2022/04/19 01:46:27;;;;;;;6.28;5.63;;;8.40;71.20;;;;;;2093928;28;20048;-68
2022/04/19 01:47:27;;;;;;;8.45;5.80;;;8.40;71.50;;;;;;2096103;28;20398;-68
2022/04/19 01:48:29;;;;;;;7.53;6.18;;;8.40;71.80;;;;;;2092650;28;20458;-68
2022/04/19 01:49:29;;;;;;;8.43;6.25;;;8.30;71.50;;;;;;2092861;28;20522;-68
2022/04/19 01:50:30;;;;;;;9.13;5.82;;;8.30;71.60;;;;;;2096975;28;20020;-68
2022/04/19 01:51:31;;;;;;;6.18;5.68;;;8.30;71.20;;;;;;2097129;28;20134;-68
2022/04/19 01:52:31;;;;;;;8.20;5.95;;;8.30;71.70;;;;;;2096954;28;20408;-68
2022/04/19 01:53:32;;;;;;;6.43;5.78;;;8.30;71.50;;;;;;2092889;28;20029;-68
2022/04/19 01:54:33;;;;;;;6.40;5.80;;;8.30;71.90;;;;;;2096698;28;20085;-68
2022/04/19 01:55:34;;;;;;;7.90;6.40;;;8.20;71.90;;;;;;2092869;28;20103;-68
2022/04/19 01:56:35;;;;;;;6.03;5.30;;;8.20;72.80;;;;;;2096524;28;20028;-68
2022/04/19 01:57:36;;;;;;;9.68;6.35;;;8.20;72.40;;;;;;2095556;28;20168;-67
2022/04/19 01:58:37;;;;;;;7.22;6.00;;;8.20;72.90;;;;;;2096139;28;20395;-67
2022/04/19 01:59:37;;;;;;;6.72;6.00;;;8.10;72.40;;;;;;2096628;28;20496;-67
2022/04/19 02:00:38;;;;;;;7.93;6.50;;;8.10;72.90;;;;;;2097204;28;20431;-68
2022/04/19 02:01:38;;;;;;;7.80;5.80;;;8.10;73.70;;;;;;2093008;28;20066;-68
2022/04/19 02:02:40;;;;;;;8.10;6.00;;;8.10;73.60;;;;;;2096559;28;20020;-68
2022/04/19 02:03:41;;;;;;;8.35;6.60;;;8.10;73.40;;;;;;2093499;28;20033;-68
2022/04/19 02:04:42;;;;;;;8.35;6.53;;;8.10;73.60;;;;;;2094846;28;20032;-68
2022/04/19 02:05:42;;;;;;;6.78;5.70;;;8.10;74.20;;;;;;2094378;28;20025;-67
2022/04/19 02:06:43;;;;;;;7.63;5.70;;;8.00;74.00;;;;;;2096281;28;20024;-68
2022/04/19 02:07:45;;;;;;;6.40;5.63;;;8.00;74.00;;;;;;2096716;28;20025;-68
2022/04/19 02:08:45;;;;;;;7.03;5.93;;;8.00;73.90;;;;;;2093658;28;20025;-68
2022/04/19 02:09:47;;;;;;;7.78;6.35;;;8.00;74.60;;;;;;2092763;28;20037;-68
2022/04/19 02:10:47;;;;;;;6.30;5.70;;;7.90;74.60;;;;;;2094971;28;20039;-68
2022/04/19 02:11:48;;;;;;;6.57;5.97;;;7.90;74.50;;;;;;2094456;28;20016;-67
2022/04/19 02:12:50;;;;;;;7.07;6.38;;;7.90;74.70;;;;;;2096864;28;20399;-67
2022/04/19 02:13:51;;;;;;;7.80;5.95;;;7.90;75.10;;;;;;2096576;28;20070;-67
2022/04/19 02:14:52;;;;;;;12.40;7.40;;;7.90;75.30;;;;;;2097335;28;20422;-67
2022/04/19 02:15:52;;;;;;;5.85;5.30;;;7.90;75.60;;;;;;2100037;28;20088;-67
2022/04/19 02:16:53;;;;;;;7.53;6.03;;;7.80;75.30;;;;;;2110099;28;20027;-67
2022/04/19 02:17:56;;;;;;;7.18;6.45;;;7.80;76.10;;;;;;2111952;28;20035;-67
2022/04/19 02:18:56;;;;;;;6.15;5.28;;;7.80;76.70;;;;;;2096881;28;20032;-67
2022/04/19 02:19:59;;;;;;;6.85;5.68;;;7.80;76.40;;;;;;2095367;28;20028;-68
2022/04/19 02:21:00;;;;;;;6.82;6.20;;;7.80;76.20;;;;;;2093964;28;20013;-68
2022/04/19 02:22:02;;;;;;;6.85;5.82;;;7.80;76.60;;;;;;2093440;28;20028;-67
2022/04/19 02:23:03;;;;;;;6.53;5.80;;;7.70;77.20;;;;;;2094298;28;20009;-67
2022/04/19 02:24:04;;;;;;;8.13;6.47;;;7.70;77.80;;;;;;2092219;28;20029;-67
2022/04/19 02:25:05;;;;;;;6.80;5.93;;;7.70;78.20;;;;;;2095679;28;20027;-68
2022/04/19 02:26:05;;;;;;;6.30;5.70;;;7.70;77.70;;;;;;2092109;28;20496;-68
2022/04/19 02:27:06;;;;;;;6.90;5.90;;;7.70;78.40;;;;;;2096233;28;20602;-68
2022/04/19 02:28:07;;;;;;;5.95;5.35;;;7.70;77.50;;;;;;2093108;28;20060;-68
2022/04/19 02:29:08;;;;;;;7.90;6.45;;;7.70;76.40;;;;;;2096633;28;20032;-68
2022/04/19 02:30:14;;;;;;;6.90;6.20;;;7.70;77.50;;;;;;2096548;28;20468;-67
2022/04/19 02:31:14;;;;;;;6.55;5.95;;;7.60;78.60;;;;;;2089719;28;20028;-67
2022/04/19 02:32:15;;;;;;;6.80;6.03;;;7.60;78.10;;;;;;2093569;28;20049;-67
2022/04/19 02:33:15;;;;;;;9.00;6.55;;;7.60;78.30;;;;;;2096598;28;20029;-67
2022/04/19 02:34:18;;;;;;;8.70;6.63;;;7.60;79.20;;;;;;2093322;28;20051;-67
2022/04/19 02:35:20;;;;;;;6.63;5.70;;;7.60;79.70;;;;;;2090766;28;20025;-67
2022/04/19 02:36:21;;;;;;;6.57;5.93;;;7.50;80.00;;;;;;2094727;28;20025;-67
2022/04/19 02:37:22;;;;;;;7.15;6.13;;;7.50;79.70;;;;;;2098081;28;20517;-67
2022/04/19 02:38:22;;;;;;;6.90;6.20;;;7.50;79.80;;;;;;2096235;28;20115;-67
2022/04/19 02:39:23;;;;;;;8.10;6.60;;;7.50;80.60;;;;;;2097423;28;20027;-67
2022/04/19 02:40:25;;;;;;;7.32;6.40;;;7.50;81.50;;;;;;2100055;28;20047;-67
2022/04/19 02:41:26;;;;;;;6.50;5.90;;;7.50;82.00;;;;;;2099525;28;20009;-67
2022/04/19 02:42:26;;;;;;;8.07;7.00;;;7.50;81.40;;;;;;2092960;28;20105;-67
2022/04/19 02:43:27;;;;;;;6.85;5.97;;;7.40;81.80;;;;;;2096353;28;20067;-67
2022/04/19 02:44:27;;;;;;;7.22;6.22;;;7.40;81.60;;;;;;2096357;28;20035;-67
2022/04/19 02:45:28;;;;;;;8.25;6.22;;;7.40;81.80;;;;;;2095871;28;20132;-67
2022/04/19 02:46:29;;;;;;;11.57;6.85;;;7.40;81.50;;;;;;2095192;28;20032;-67
2022/04/19 02:47:30;;;;;;;8.63;6.80;;;7.40;82.00;;;;;;2094251;28;20648;-68
2022/04/19 02:48:31;;;;;;;8.73;5.90;;;7.40;82.50;;;;;;2094302;28;20456;-67
2022/04/19 02:49:33;;;;;;;6.65;6.05;;;7.30;82.30;;;;;;2092679;28;20118;-67
2022/04/19 02:50:52;;;;;;;8.75;5.90;;;7.30;83.20;;;;;;2096548;28;20467;-67
2022/04/19 02:51:55;;;;;;;7.45;6.60;;;7.30;83.40;;;;;;2096368;28;20064;-67
2022/04/19 02:52:55;;;;;;;9.07;6.88;;;7.30;83.40;;;;;;2096911;28;20052;-67
2022/04/19 02:53:56;;;;;;;7.13;6.38;;;7.20;84.10;;;;;;2092577;28;20652;-67
2022/04/19 02:54:56;;;;;;;7.57;6.78;;;7.30;83.70;;;;;;2092925;28;20025;-68
2022/04/19 02:55:57;;;;;;;7.18;6.30;;;7.20;84.60;;;;;;2095883;28;20230;-67
2022/04/19 02:56:58;;;;;;;8.27;7.22;;;7.30;84.40;;;;;;2092807;28;20059;-67
2022/04/19 02:57:58;;;;;;;7.18;6.07;;;7.20;85.90;;;;;;2095488;28;20024;-67
2022/04/19 02:58:59;;;;;;;6.85;6.15;;;7.20;85.70;;;;;;2096614;28;20021;-67
2022/04/19 03:00:00;;;;;;;8.05;6.40;;;7.20;87.30;;;;;;2092420;28;20063;-67
2022/04/19 03:01:02;;;;;;;7.78;6.50;;;7.20;86.40;;;;;;2095756;28;20021;-67
2022/04/19 03:02:02;;;;;;;7.68;6.82;;;7.20;86.60;;;;;;2093393;28;20028;-68
2022/04/19 03:03:03;;;;;;;7.40;5.95;;;7.20;86.70;;;;;;2094610;28;20056;-68
2022/04/19 03:04:04;;;;;;;7.75;6.60;;;7.20;86.00;;;;;;2094631;28;20093;-68
2022/04/19 03:05:05;;;;;;;8.15;6.28;;;7.20;86.00;;;;;;2092788;28;20442;-68
2022/04/19 03:06:06;;;;;;;6.93;6.22;;;7.10;85.20;;;;;;2091430;28;20020;-67
2022/04/19 03:07:07;;;;;;;7.80;6.68;;;7.10;85.30;;;;;;2098821;28;20067;-67
2022/04/19 03:08:08;;;;;;;11.85;7.00;;;7.10;85.90;;;;;;2092345;28;20033;-67
2022/04/19 03:09:08;;;;;;;7.20;6.50;;;7.10;85.70;;;;;;2095870;28;20519;-68
2022/04/19 03:10:09;;;;;;;7.82;6.97;;;7.10;86.90;;;;;;2096056;28;20630;-67
2022/04/19 03:11:10;;;;;;;8.02;7.05;;;7.10;87.40;;;;;;2093330;28;20028;-67
2022/04/19 03:12:11;;;;;;;8.45;6.90;;;7.10;87.70;;;;;;2095671;28;20040;-67
2022/04/19 03:13:12;;;;;;;9.02;6.45;;;7.10;89.20;;;;;;2095748;28;20032;-67
2022/04/19 03:14:13;;;;;;;8.68;7.38;;;7.10;89.10;;;;;;2092213;28;20032;-67
2022/04/19 03:15:14;;;;;;;6.93;6.22;;;7.00;89.10;;;;;;2100191;28;20028;-67
2022/04/19 03:16:15;;;;;;;7.55;6.75;;;7.00;89.00;;;;;;2101888;28;20028;-68
2022/04/19 03:17:16;;;;;;;8.25;6.72;;;7.00;88.70;;;;;;2096233;28;20092;-67
2022/04/19 03:18:16;;;;;;;8.40;7.20;;;7.00;88.00;;;;;;2095557;28;20032;-68
2022/04/19 03:19:17;;;;;;;6.57;5.93;;;7.00;89.00;;;;;;2093508;28;20025;-67
2022/04/19 03:20:17;;;;;;;7.05;6.20;;;7.00;88.30;;;;;;2091913;28;20032;-67
2022/04/19 03:21:18;;;;;;;7.75;6.95;;;7.00;87.10;;;;;;2096239;28;20027;-67
2022/04/19 03:22:18;;;;;;;8.70;6.72;;;7.00;88.10;;;;;;2094182;28;20506;-67
2022/04/19 03:28:35;;;;;;;7.20;6.35;;;6.80;89.20;;;;;;2092897;28;20024;-68
2022/04/19 03:29:35;;;;;;;10.20;7.32;;;6.80;88.80;;;;;;2096190;28;20056;-68
2022/04/19 03:30:38;;;;;;;7.68;6.93;;;6.80;89.60;;;;;;2094101;28;20123;-67
2022/04/19 03:31:38;;;;;;;7.78;6.97;;;6.80;90.30;;;;;;2096678;28;20055;-67
2022/04/19 03:32:39;;;;;;;8.27;7.28;;;6.80;89.80;;;;;;2095376;28;20020;-68
2022/04/19 03:33:40;;;;;;;8.98;7.00;;;6.80;90.00;;;;;;2096009;28;20534;-67
2022/04/19 03:34:41;;;;;;;8.65;7.22;;;6.80;90.40;;;;;;2092266;28;20548;-68
2022/04/19 03:35:41;;;;;;;9.15;7.45;;;6.80;90.10;;;;;;2094390;28;20028;-68
2022/04/19 03:36:44;;;;;;;8.20;7.40;;;6.80;89.90;;;;;;2095599;28;20107;-68
2022/04/19 03:37:45;;;;;;;8.43;7.60;;;6.70;90.20;;;;;;2093376;28;20020;-67
2022/04/19 03:38:45;;;;;;;9.40;7.63;;;6.70;90.10;;;;;;2091841;28;20120;-68
2022/04/19 03:39:46;;;;;;;8.77;7.88;;;6.70;90.10;;;;;;2098909;28;20394;-67
2022/04/19 03:40:46;;;;;;;9.50;8.52;;;6.80;90.80;;;;;;2099725;28;20124;-67
2022/04/19 03:41:47;;;;;;;12.13;8.85;;;6.70;91.20;;;;;;2096619;28;20070;-67
2022/04/19 03:42:47;;;;;;;9.85;7.78;;;6.70;91.20;;;;;;2096295;28;20063;-67
2022/04/19 03:43:51;;;;;;;10.98;8.23;;;6.70;90.90;;;;;;2095644;28;20032;-67
2022/04/19 03:44:51;;;;;;;12.75;10.02;;;6.70;90.50;;;;;;2094556;28;20037;-67
2022/04/19 03:45:52;;;;;;;10.57;8.75;;;6.70;91.50;;;;;;2093619;28;20467;-67
2022/04/19 03:47:07;;;;;;;8.88;7.97;;;6.70;91.40;;;;;;2093440;28;20619;-67
2022/04/19 03:48:11;;;;;;;11.68;9.63;;;6.70;91.30;;;;;;2091879;28;20036;-67
2022/04/19 03:49:11;;;;;;;13.35;10.15;;;6.60;92.30;;;;;;2094349;28;20024;-67
2022/04/19 03:50:12;;;;;;;9.40;8.50;;;6.70;92.90;;;;;;2098023;28;20024;-67
2022/04/19 03:51:13;;;;;;;11.48;8.88;;;6.70;92.30;;;;;;2096946;28;20086;-67
2022/04/19 03:52:14;;;;;;;10.98;8.48;;;6.60;92.10;;;;;;2092309;28;20051;-67
2022/04/19 03:53:14;;;;;;;10.80;8.30;;;6.70;92.30;;;;;;2092384;28;20488;-67
2022/04/19 03:54:15;;;;;;;10.85;8.95;;;6.60;91.20;;;;;;2091934;28;20074;-67
2022/04/19 03:55:16;;;;;;;13.10;10.32;;;6.70;91.30;;;;;;2092114;28;20064;-68
2022/04/19 03:56:16;;;;;;;10.75;9.38;;;6.60;92.60;;;;;;2092476;28;20020;-67
2022/04/19 03:57:18;;;;;;;10.48;9.20;;;6.60;93.40;;;;;;2095512;28;20048;-67
2022/04/19 03:58:18;;;;;;;10.10;8.38;;;6.60;93.00;;;;;;2094909;28;20029;-68
2022/04/19 03:59:19;;;;;;;14.82;10.38;;;6.60;93.10;;;;;;2095264;28;20024;-68
2022/04/19 04:00:21;;;;;;;11.80;10.30;;;6.60;94.30;;;;;;2093233;28;20023;-68
2022/04/19 04:01:21;;;;;;;11.50;10.02;;;6.60;95.30;;;;;;2094157;28;20016;-68
2022/04/19 04:02:22;;;;;;;11.15;9.90;;;6.60;95.50;;;;;;2101669;28;20025;-68
2022/04/19 04:03:23;;;;;;;12.65;9.68;;;6.60;96.20;;;;;;2102981;28;20031;-68
2022/04/19 04:04:23;;;;;;;15.55;11.27;;;6.60;96.30;;;;;;2095896;28;20020;-68
2022/04/19 04:05:24;;;;;;;11.77;9.70;;;6.60;96.80;;;;;;2098183;28;20027;-68
2022/04/19 04:06:25;;;;;;;12.48;10.60;;;6.60;96.30;;;;;;2092448;28;20029;-68
2022/04/19 04:07:30;;;;;;;10.77;9.48;;;6.60;96.60;;;;;;2096336;28;20035;-68
2022/04/19 04:08:30;;;;;;;13.90;11.52;;;6.60;96.20;;;;;;2091819;28;20019;-68
2022/04/19 04:09:32;;;;;;;13.93;11.32;;;6.60;97.10;;;;;;2093320;28;20388;-68
2022/04/19 04:10:33;;;;;;;11.43;9.15;;;6.50;97.90;;;;;;2095573;28;20105;-68
2022/04/19 04:11:33;;;;;;;13.65;10.40;;;6.60;96.90;;;;;;2092987;28;20021;-68
2022/04/19 04:12:34;;;;;;;14.43;11.68;;;6.50;96.70;;;;;;2095697;28;20020;-68
2022/04/19 04:13:35;;;;;;;12.77;10.50;;;6.50;98.20;;;;;;2096604;28;20024;-68
2022/04/19 04:14:36;;;;;;;9.30;8.38;;;6.50;97.90;;;;;;2092030;28;20179;-68
2022/04/19 04:15:36;;;;;;;14.20;10.32;;;6.50;96.20;;;;;;2095815;28;20603;-68
2022/04/19 04:16:37;;;;;;;11.43;9.35;;;6.60;95.70;;;;;;2092005;28;20025;-68
2022/04/19 04:17:37;;;;;;;14.20;11.07;;;6.50;95.20;;;;;;2095077;28;20053;-68
2022/04/19 04:18:39;;;;;;;11.52;9.57;;;6.50;95.90;;;;;;2095878;28;20028;-68
2022/04/19 04:19:40;;;;;;;11.88;9.93;;;6.50;95.70;;;;;;2093897;28;20071;-68
2022/04/19 04:20:41;;;;;;;11.43;10.10;;;6.50;95.50;;;;;;2091018;28;20815;-68
2022/04/19 04:21:41;;;;;;;12.27;10.98;;;6.50;95.70;;;;;;2092041;28;20115;-68
2022/04/19 04:22:42;;;;;;;11.23;9.70;;;6.50;95.60;;;;;;2095329;28;20020;-68
2022/04/19 04:23:42;;;;;;;12.40;10.10;;;6.50;95.40;;;;;;2094274;28;20035;-68
2022/04/19 04:24:43;;;;;;;14.32;12.05;;;6.50;95.30;;;;;;2094718;28;20396;-68
2022/04/19 04:25:43;;;;;;;12.05;10.45;;;6.50;95.70;;;;;;2095053;28;20395;-68
2022/04/19 04:26:44;;;;;;;12.55;10.80;;;6.50;95.60;;;;;;2095478;28;20424;-68
2022/04/19 04:27:44;;;;;;;13.48;11.02;;;6.50;95.40;;;;;;2092883;28;20025;-68
2022/04/19 04:28:45;;;;;;;14.30;11.80;;;6.50;96.70;;;;;;2096440;28;20020;-68
2022/04/19 04:29:45;;;;;;;10.57;9.18;;;6.50;96.70;;;;;;2095834;28;20399;-68
2022/04/19 04:30:46;;;;;;;11.27;10.20;;;6.50;96.20;;;;;;2095172;28;20399;-68
2022/04/19 04:31:46;;;;;;;14.43;11.00;;;6.50;96.10;;;;;;2094635;28;20032;-68
2022/04/19 04:32:48;;;;;;;12.13;10.75;;;6.50;95.80;;;;;;2096075;28;20115;-68
2022/04/19 04:33:48;;;;;;;13.32;11.77;;;6.50;95.70;;;;;;2096206;28;20048;-68
2022/04/19 04:34:49;;;;;;;15.07;10.25;;;6.50;96.60;;;;;;2095845;28;20040;-68
2022/04/19 04:35:49;;;;;;;11.15;9.90;;;6.50;95.80;;;;;;2091718;28;20059;-68
2022/04/19 04:36:50;;;;;;;17.15;13.02;;;6.50;95.50;;;;;;2094731;28;20048;-68
2022/04/19 04:37:50;;;;;;;12.98;10.82;;;6.50;97.10;;;;;;2092297;28;20025;-68
2022/04/19 04:38:51;;;;;;;11.65;10.45;;;6.50;97.30;;;;;;2095199;28;20052;-68
2022/04/19 04:39:52;;;;;;;11.13;9.93;;;6.50;96.70;;;;;;2092502;28;20017;-68
2022/04/19 04:40:52;;;;;;;15.52;12.13;;;6.50;95.90;;;;;;2094239;28;20032;-68
2022/04/19 04:41:53;;;;;;;14.88;13.23;;;6.50;96.70;;;;;;2095595;28;20074;-68
2022/04/19 04:42:53;;;;;;;18.08;12.50;;;6.50;98.60;;;;;;2095665;28;20024;-68
2022/04/19 04:43:54;;;;;;;15.35;12.23;;;6.50;99.00;;;;;;2094699;28;20472;-68
2022/04/19 04:44:54;;;;;;;12.32;10.77;;;6.50;98.90;;;;;;2092808;28;20489;-68
2022/04/19 04:49:53;;;;;;;12.52;11.07;;;6.40;97.90;;;;;;2093482;28;20036;-68
2022/04/19 04:50:54;;;;;;;12.27;10.85;;;6.40;97.90;;;;;;2096333;28;20043;-68
2022/04/19 04:51:54;;;;;;;12.73;10.77;;;6.40;97.90;;;;;;2096526;28;20049;-68
2022/04/19 04:52:55;;;;;;;12.57;11.27;;;6.40;97.40;;;;;;2096324;28;20023;-68
2022/04/19 04:53:55;;;;;;;14.15;10.63;;;6.40;97.60;;;;;;2097150;28;20016;-68
2022/04/19 04:54:56;;;;;;;13.52;10.05;;;6.50;97.40;;;;;;2097331;28;20036;-68
2022/04/19 04:55:57;;;;;;;13.70;10.70;;;6.40;96.70;;;;;;2096380;28;20357;-68
2022/04/19 04:56:57;;;;;;;13.80;11.50;;;6.40;96.90;;;;;;2097136;28;20029;-68
2022/04/19 04:58:01;;;;;;;12.02;10.63;;;6.40;97.20;;;;;;2095509;28;20096;-68
2022/04/19 04:59:02;;;;;;;13.02;11.07;;;6.50;96.80;;;;;;2097558;28;20371;-68
2022/04/19 05:00:03;;;;;;;12.82;11.48;;;6.40;97.40;;;;;;2096805;28;20037;-68
2022/04/19 05:01:04;;;;;;;15.45;11.50;;;6.50;97.50;;;;;;2096510;28;20104;-68
2022/04/19 05:02:05;;;;;;;13.93;12.35;;;6.40;97.70;;;;;;2096476;28;20024;-68
2022/04/19 05:03:07;;;;;;;14.18;11.95;;;6.40;98.20;;;;;;2096595;28;20017;-68
2022/04/19 05:04:08;;;;;;;12.07;10.68;;;6.50;99.10;;;;;;2097883;28;20379;-68
2022/04/19 05:05:08;;;;;;;14.30;11.77;;;6.40;98.30;;;;;;2095904;28;20107;-68
2022/04/19 05:06:09;;;;;;;14.63;12.38;;;6.50;98.60;;;;;;2095946;28;20043;-68
2022/04/19 05:07:09;;;;;;;13.27;11.85;;;6.50;99.40;;;;;;2096141;28;20100;-68
2022/04/19 05:08:12;;;;;;;15.38;12.50;;;6.50;99.90;;;;;;2095646;28;20029;-68
2022/04/19 05:09:12;;;;;;;13.25;11.48;;;6.50;99.90;;;;;;2096652;28;20031;-68
2022/04/19 05:10:14;;;;;;;13.95;12.18;;;6.50;99.90;;;;;;2096672;28;20024;-68
2022/04/19 05:11:15;;;;;;;14.15;12.55;;;6.50;99.90;;;;;;2096941;28;20028;-68
2022/04/19 05:12:15;;;;;;;13.95;12.45;;;6.50;99.90;;;;;;2093456;28;20086;-68
2022/04/19 05:13:16;;;;;;;15.05;11.77;;;6.50;99.90;;;;;;2098344;28;20104;-68
2022/04/19 05:14:16;;;;;;;14.10;11.43;;;6.50;99.90;;;;;;2095608;28;20019;-68
2022/04/19 05:15:17;;;;;;;14.90;12.50;;;6.50;99.90;;;;;;2095820;28;20055;-68
2022/04/19 05:16:18;;;;;;;16.77;13.10;;;6.50;99.90;;;;;;2096997;28;20052;-68
2022/04/19 05:17:18;;;;;;;17.00;13.27;;;6.50;99.90;;;;;;2096332;28;20028;-68
2022/04/19 05:18:19;;;;;;;13.98;12.35;;;6.50;99.90;;;;;;2094525;28;20020;-68
2022/04/19 05:19:19;;;;;;;13.85;11.73;;;6.50;99.90;;;;;;2094402;28;20024;-68
2022/04/19 05:20:20;;;;;;;16.17;12.43;;;6.50;99.90;;;;;;2096917;28;20095;-68
2022/04/19 05:21:20;;;;;;;15.43;12.45;;;6.50;99.90;;;;;;2095954;28;20021;-68
2022/04/19 05:22:21;;;;;;;12.93;11.52;;;6.50;99.90;;;;;;2095694;28;20025;-68
2022/04/19 05:23:21;;;;;;;14.70;12.73;;;6.60;99.90;;;;;;2096208;28;20551;-68
2022/04/19 05:24:22;;;;;;;19.00;13.25;;;6.60;99.90;;;;;;2096818;28;20021;-68
2022/04/19 05:25:22;;;;;;;14.93;12.55;;;6.60;99.90;;;;;;2094489;28;20037;-68
2022/04/19 05:26:28;;;;;;;15.45;12.70;;;6.70;99.90;;;;;;2094203;28;20025;-69
2022/04/19 05:27:28;;;;;;;16.80;14.02;;;6.70;99.90;;;;;;2095793;28;20055;-68
2022/04/19 05:28:29;;;;;;;17.55;13.65;;;6.70;99.90;;;;;;2095124;28;20028;-68
2022/04/19 05:29:30;;;;;;;17.83;13.45;;;6.70;99.90;;;;;;2096735;28;20120;-68
2022/04/19 05:30:30;;;;;;;19.67;14.10;;;6.80;99.90;;;;;;2095871;28;20472;-68
2022/04/19 05:31:31;;;;;;;16.35;13.63;;;6.80;99.90;;;;;;2095008;28;20101;-68